createdAt,value
2022-11-24T00:00:04.597Z,939.17
2022-11-24T00:00:14.595Z,939.16
2022-11-24T00:00:24.588Z,939.16
2022-11-24T00:00:34.597Z,939.16
2022-11-24T00:00:44.602Z,939.17
2022-11-24T00:00:54.596Z,939.17
2022-11-24T00:01:04.595Z,939.17
2022-11-24T00:01:14.600Z,939.18
2022-11-24T00:01:24.603Z,939.18
2022-11-24T00:01:34.583Z,939.18
2022-11-24T00:01:44.600Z,939.18
2022-11-24T00:01:54.645Z,939.17
2022-11-24T00:02:04.813Z,939.17
2022-11-24T00:02:14.691Z,939.18
2022-11-24T00:02:24.690Z,939.18
2022-11-24T00:02:34.737Z,939.19
2022-11-24T00:02:44.730Z,939.19
2022-11-24T00:02:54.693Z,939.19
2022-11-24T00:03:04.757Z,939.20
2022-11-24T00:03:14.677Z,939.20
2022-11-24T00:03:24.656Z,939.20
2022-11-24T00:03:34.690Z,939.20
2022-11-24T00:03:44.644Z,939.20
2022-11-24T00:03:54.610Z,939.19
2022-11-24T00:04:04.627Z,939.20
2022-11-24T00:04:14.609Z,939.20
2022-11-24T00:04:24.606Z,939.20
2022-11-24T00:04:34.994Z,939.19
2022-11-24T00:04:44.612Z,939.19
2022-11-24T00:04:54.608Z,939.19
2022-11-24T00:05:04.611Z,939.19
2022-11-24T00:05:14.610Z,939.19
2022-11-24T00:05:24.607Z,939.20
2022-11-24T00:05:34.609Z,939.20
2022-11-24T00:05:44.616Z,939.20
2022-11-24T00:05:54.613Z,939.20
2022-11-24T00:06:04.616Z,939.20
2022-11-24T00:06:14.616Z,939.20
2022-11-24T00:06:24.618Z,939.20
2022-11-24T00:06:34.615Z,939.20
2022-11-24T00:06:44.619Z,939.20
2022-11-24T00:06:54.617Z,939.19
2022-11-24T00:07:04.621Z,939.19
2022-11-24T00:07:14.665Z,939.19
2022-11-24T00:07:24.657Z,939.19
2022-11-24T00:07:34.705Z,939.20
2022-11-24T00:07:44.692Z,939.20
2022-11-24T00:07:54.688Z,939.20
2022-11-24T00:08:04.639Z,939.20
2022-11-24T00:08:14.623Z,939.19
2022-11-24T00:08:24.621Z,939.20
2022-11-24T00:08:34.621Z,939.20
2022-11-24T00:08:44.626Z,939.20
2022-11-24T00:08:54.629Z,939.20
2022-11-24T00:09:04.630Z,939.21
2022-11-24T00:09:14.625Z,939.21
2022-11-24T00:09:24.628Z,939.20
2022-11-24T00:09:34.610Z,939.20
2022-11-24T00:09:44.632Z,939.20
2022-11-24T00:09:54.631Z,939.20
2022-11-24T00:10:04.628Z,939.20
2022-11-24T00:10:14.635Z,939.20
2022-11-24T00:10:24.632Z,939.19
2022-11-24T00:10:34.616Z,939.20
2022-11-24T00:10:44.635Z,939.21
2022-11-24T00:10:54.631Z,939.21
2022-11-24T00:11:04.631Z,939.20
2022-11-24T00:11:14.632Z,939.20
2022-11-24T00:11:24.633Z,939.20
2022-11-24T00:11:34.637Z,939.20
2022-11-24T00:11:44.637Z,939.20
2022-11-24T00:11:54.634Z,939.19
2022-11-24T00:12:04.634Z,939.19
2022-11-24T00:12:14.639Z,939.20
2022-11-24T00:12:24.635Z,939.20
2022-11-24T00:12:34.622Z,939.20
2022-11-24T00:12:44.663Z,939.21
2022-11-24T00:12:54.638Z,939.20
2022-11-24T00:13:04.642Z,939.20
2022-11-24T00:13:14.626Z,939.21
2022-11-24T00:13:24.636Z,939.21
2022-11-24T00:13:34.639Z,939.22
2022-11-24T00:13:44.636Z,939.22
2022-11-24T00:13:54.640Z,939.22
2022-11-24T00:14:04.643Z,939.22
2022-11-24T00:14:14.639Z,939.22
2022-11-24T00:14:24.641Z,939.22
2022-11-24T00:14:35.005Z,939.22
2022-11-24T00:14:44.643Z,939.23
2022-11-24T00:14:54.649Z,939.24
2022-11-24T00:15:04.655Z,939.24
2022-11-24T00:15:14.645Z,939.24
2022-11-24T00:15:24.648Z,939.25
2022-11-24T00:15:34.655Z,939.25
2022-11-24T00:15:44.648Z,939.25
2022-11-24T00:15:54.649Z,939.26
2022-11-24T00:16:04.662Z,939.27
2022-11-24T00:16:14.774Z,939.27
2022-11-24T00:16:24.702Z,939.27
2022-11-24T00:16:34.722Z,939.27
2022-11-24T00:16:44.714Z,939.27
2022-11-24T00:16:54.699Z,939.27
2022-11-24T00:17:04.704Z,939.28
2022-11-24T00:17:14.652Z,939.28
2022-11-24T00:17:24.636Z,939.27
2022-11-24T00:17:34.654Z,939.27
2022-11-24T00:17:44.652Z,939.27
2022-11-24T00:17:54.651Z,939.27
2022-11-24T00:18:04.668Z,939.27
2022-11-24T00:18:14.639Z,939.27
2022-11-24T00:18:24.657Z,939.28
2022-11-24T00:18:34.657Z,939.27
2022-11-24T00:18:44.654Z,939.27
2022-11-24T00:18:54.666Z,939.28
2022-11-24T00:19:04.690Z,939.28
2022-11-24T00:19:19.465Z,939.29
2022-11-24T00:19:25.656Z,939.30
2022-11-24T00:19:34.661Z,939.30
2022-11-24T00:19:44.661Z,939.30
2022-11-24T00:19:54.662Z,939.31
2022-11-24T00:20:04.683Z,939.31
2022-11-24T00:20:14.666Z,939.31
2022-11-24T00:20:24.669Z,939.32
2022-11-24T00:20:34.664Z,939.32
2022-11-24T00:20:44.671Z,939.33
2022-11-24T00:20:54.668Z,939.33
2022-11-24T00:21:04.681Z,939.33
2022-11-24T00:21:14.667Z,939.34
2022-11-24T00:21:24.669Z,939.33
2022-11-24T00:21:34.674Z,939.33
2022-11-24T00:21:44.671Z,939.34
2022-11-24T00:21:54.673Z,939.35
2022-11-24T00:22:04.678Z,939.35
2022-11-24T00:22:14.670Z,939.35
2022-11-24T00:22:24.674Z,939.35
2022-11-24T00:22:34.680Z,939.35
2022-11-24T00:22:44.670Z,939.36
2022-11-24T00:22:54.663Z,939.35
2022-11-24T00:23:04.672Z,939.35
2022-11-24T00:23:14.674Z,939.35
2022-11-24T00:23:24.682Z,939.36
2022-11-24T00:23:34.682Z,939.36
2022-11-24T00:23:44.686Z,939.37
2022-11-24T00:23:54.690Z,939.38
2022-11-24T00:24:04.683Z,939.37
2022-11-24T00:24:14.679Z,939.37
2022-11-24T00:24:24.687Z,939.38
2022-11-24T00:24:35.098Z,939.38
2022-11-24T00:24:44.685Z,939.38
2022-11-24T00:24:54.684Z,939.38
2022-11-24T00:25:04.682Z,939.38
2022-11-24T00:25:14.688Z,939.39
2022-11-24T00:25:24.692Z,939.39
2022-11-24T00:25:34.689Z,939.39
2022-11-24T00:25:44.693Z,939.39
2022-11-24T00:25:54.696Z,939.39
2022-11-24T00:26:04.676Z,939.39
2022-11-24T00:26:14.689Z,939.39
2022-11-24T00:26:24.697Z,939.39
2022-11-24T00:26:34.710Z,939.39
2022-11-24T00:26:44.688Z,939.39
2022-11-24T00:26:54.688Z,939.39
2022-11-24T00:27:04.701Z,939.39
2022-11-24T00:27:14.691Z,939.39
2022-11-24T00:27:24.693Z,939.40
2022-11-24T00:27:34.701Z,939.40
2022-11-24T00:27:44.694Z,939.41
2022-11-24T00:27:54.697Z,939.41
2022-11-24T00:28:04.694Z,939.41
2022-11-24T00:28:14.694Z,939.41
2022-11-24T00:28:24.696Z,939.41
2022-11-24T00:28:34.698Z,939.42
2022-11-24T00:28:44.700Z,939.42
2022-11-24T00:28:54.729Z,939.42
2022-11-24T00:29:04.688Z,939.41
2022-11-24T00:29:14.683Z,939.41
2022-11-24T00:29:24.802Z,939.41
2022-11-24T00:29:34.700Z,939.42
2022-11-24T00:29:44.726Z,939.41
2022-11-24T00:29:54.707Z,939.42
2022-11-24T00:30:04.692Z,939.41
2022-11-24T00:30:14.706Z,939.41
2022-11-24T00:30:24.809Z,939.42
2022-11-24T00:30:34.792Z,939.42
2022-11-24T00:30:44.750Z,939.42
2022-11-24T00:30:54.770Z,939.42
2022-11-24T00:31:04.749Z,939.42
2022-11-24T00:31:17.206Z,939.43
2022-11-24T00:31:24.783Z,939.43
2022-11-24T00:31:34.755Z,939.44
2022-11-24T00:31:44.712Z,939.43
2022-11-24T00:31:54.722Z,939.44
2022-11-24T00:32:04.710Z,939.44
2022-11-24T00:32:14.719Z,939.44
2022-11-24T00:32:24.715Z,939.44
2022-11-24T00:32:34.718Z,939.45
2022-11-24T00:32:44.725Z,939.44
2022-11-24T00:32:54.712Z,939.45
2022-11-24T00:33:04.715Z,939.45
2022-11-24T00:33:14.730Z,939.45
2022-11-24T00:33:24.715Z,939.45
2022-11-24T00:33:35.254Z,939.46
2022-11-24T00:33:44.711Z,939.45
2022-11-24T00:33:54.715Z,939.46
2022-11-24T00:34:04.730Z,939.46
2022-11-24T00:34:14.719Z,939.46
2022-11-24T00:34:24.718Z,939.46
2022-11-24T00:34:35.020Z,939.46
2022-11-24T00:34:44.719Z,939.46
2022-11-24T00:34:54.724Z,939.46
2022-11-24T00:35:04.727Z,939.46
2022-11-24T00:35:14.726Z,939.46
2022-11-24T00:35:24.732Z,939.46
2022-11-24T00:35:34.725Z,939.46
2022-11-24T00:35:44.729Z,939.46
2022-11-24T00:35:54.730Z,939.46
2022-11-24T00:36:04.732Z,939.46
2022-11-24T00:36:14.730Z,939.46
2022-11-24T00:36:24.734Z,939.46
2022-11-24T00:36:34.723Z,939.45
2022-11-24T00:36:44.733Z,939.46
2022-11-24T00:36:54.732Z,939.46
2022-11-24T00:37:04.732Z,939.46
2022-11-24T00:37:14.716Z,939.46
2022-11-24T00:37:24.732Z,939.46
2022-11-24T00:37:34.733Z,939.45
2022-11-24T00:37:44.729Z,939.46
2022-11-24T00:37:54.742Z,939.46
2022-11-24T00:38:04.732Z,939.47
2022-11-24T00:38:14.734Z,939.46
2022-11-24T00:38:24.739Z,939.46
2022-11-24T00:38:34.865Z,939.46
2022-11-24T00:38:44.740Z,939.46
2022-11-24T00:38:54.745Z,939.46
2022-11-24T00:39:04.748Z,939.46
2022-11-24T00:39:14.746Z,939.46
2022-11-24T00:39:24.779Z,939.45
2022-11-24T00:39:34.741Z,939.45
2022-11-24T00:39:44.745Z,939.44
2022-11-24T00:39:54.752Z,939.45
2022-11-24T00:40:04.750Z,939.44
2022-11-24T00:40:14.743Z,939.44
2022-11-24T00:40:24.749Z,939.44
2022-11-24T00:40:35.232Z,939.43
2022-11-24T00:40:44.745Z,939.43
2022-11-24T00:40:54.750Z,939.43
2022-11-24T00:41:04.750Z,939.43
2022-11-24T00:41:14.750Z,939.42
2022-11-24T00:41:24.753Z,939.42
2022-11-24T00:41:34.753Z,939.42
2022-11-24T00:41:44.750Z,939.43
2022-11-24T00:41:54.750Z,939.43
2022-11-24T00:42:04.753Z,939.43
2022-11-24T00:42:14.751Z,939.43
2022-11-24T00:42:24.759Z,939.43
2022-11-24T00:42:34.756Z,939.43
2022-11-24T00:42:44.754Z,939.44
2022-11-24T00:42:54.752Z,939.44
2022-11-24T00:43:04.765Z,939.45
2022-11-24T00:43:14.761Z,939.45
2022-11-24T00:43:24.765Z,939.45
2022-11-24T00:43:35.303Z,939.46
2022-11-24T00:43:44.756Z,939.46
2022-11-24T00:43:54.756Z,939.45
2022-11-24T00:44:04.764Z,939.46
2022-11-24T00:44:14.763Z,939.46
2022-11-24T00:44:24.761Z,939.45
2022-11-24T00:44:35.039Z,939.45
2022-11-24T00:44:44.768Z,939.45
2022-11-24T00:44:54.769Z,939.45
2022-11-24T00:45:13.593Z,939.45
2022-11-24T00:45:15.761Z,939.45
2022-11-24T00:45:24.763Z,939.45
2022-11-24T00:45:34.806Z,939.45
2022-11-24T00:45:44.896Z,939.45
2022-11-24T00:45:54.935Z,939.46
2022-11-24T00:46:04.904Z,939.46
2022-11-24T00:46:14.947Z,939.46
2022-11-24T00:46:24.956Z,939.45
2022-11-24T00:46:34.973Z,939.46
2022-11-24T00:46:44.894Z,939.46
2022-11-24T00:46:54.876Z,939.46
2022-11-24T00:47:04.888Z,939.46
2022-11-24T00:47:14.867Z,939.47
2022-11-24T00:47:24.831Z,939.47
2022-11-24T00:47:34.777Z,939.47
2022-11-24T00:47:44.774Z,939.47
2022-11-24T00:47:54.786Z,939.47
2022-11-24T00:48:04.781Z,939.47
2022-11-24T00:48:14.775Z,939.47
2022-11-24T00:48:24.777Z,939.47
2022-11-24T00:48:35.788Z,939.47
2022-11-24T00:48:44.765Z,939.47
2022-11-24T00:48:54.781Z,939.48
2022-11-24T00:49:04.784Z,939.49
2022-11-24T00:49:14.783Z,939.49
2022-11-24T00:49:24.788Z,939.50
2022-11-24T00:49:34.782Z,939.50
2022-11-24T00:49:44.789Z,939.51
2022-11-24T00:49:54.780Z,939.51
2022-11-24T00:50:04.782Z,939.51
2022-11-24T00:50:14.782Z,939.52
2022-11-24T00:50:24.783Z,939.52
2022-11-24T00:50:34.786Z,939.53
2022-11-24T00:50:44.783Z,939.53
2022-11-24T00:50:54.786Z,939.53
2022-11-24T00:51:04.786Z,939.54
2022-11-24T00:51:14.784Z,939.54
2022-11-24T00:51:24.797Z,939.55
2022-11-24T00:51:34.784Z,939.55
2022-11-24T00:51:44.793Z,939.55
2022-11-24T00:51:54.789Z,939.56
2022-11-24T00:52:04.787Z,939.57
2022-11-24T00:52:14.790Z,939.57
2022-11-24T00:52:24.785Z,939.57
2022-11-24T00:52:34.788Z,939.58
2022-11-24T00:52:44.795Z,939.57
2022-11-24T00:52:54.794Z,939.58
2022-11-24T00:53:04.793Z,939.57
2022-11-24T00:53:14.796Z,939.57
2022-11-24T00:53:24.794Z,939.57
2022-11-24T00:53:35.782Z,939.57
2022-11-24T00:53:44.796Z,939.57
2022-11-24T00:53:54.792Z,939.57
2022-11-24T00:54:04.801Z,939.57
2022-11-24T00:54:14.794Z,939.56
2022-11-24T00:54:24.794Z,939.56
2022-11-24T00:54:35.235Z,939.57
2022-11-24T00:54:44.795Z,939.57
2022-11-24T00:54:54.802Z,939.56
2022-11-24T00:55:04.798Z,939.56
2022-11-24T00:55:14.801Z,939.56
2022-11-24T00:55:24.799Z,939.56
2022-11-24T00:55:34.802Z,939.55
2022-11-24T00:55:44.801Z,939.55
2022-11-24T00:55:54.804Z,939.56
2022-11-24T00:56:04.807Z,939.55
2022-11-24T00:56:14.804Z,939.55
2022-11-24T00:56:24.805Z,939.55
2022-11-24T00:56:34.812Z,939.55
2022-11-24T00:56:44.807Z,939.54
2022-11-24T00:56:54.809Z,939.54
2022-11-24T00:57:04.825Z,939.55
2022-11-24T00:57:14.812Z,939.55
2022-11-24T00:57:24.813Z,939.55
2022-11-24T00:57:34.829Z,939.55
2022-11-24T00:57:44.814Z,939.55
2022-11-24T00:57:54.817Z,939.55
2022-11-24T00:58:04.817Z,939.56
2022-11-24T00:58:14.820Z,939.56
2022-11-24T00:58:24.821Z,939.56
2022-11-24T00:58:35.791Z,939.58
2022-11-24T00:58:44.818Z,939.59
2022-11-24T00:58:54.822Z,939.60
2022-11-24T00:59:04.831Z,939.61
2022-11-24T00:59:14.825Z,939.61
2022-11-24T00:59:24.823Z,939.62
2022-11-24T00:59:34.824Z,939.62
2022-11-24T00:59:44.823Z,939.63
2022-11-24T00:59:54.829Z,939.62
2022-11-24T01:00:04.830Z,939.63
2022-11-24T01:00:14.832Z,939.63
2022-11-24T01:00:24.827Z,939.64
2022-11-24T01:00:34.836Z,939.64
2022-11-24T01:00:44.838Z,939.64
2022-11-24T01:00:54.827Z,939.64
2022-11-24T01:01:04.958Z,939.64
2022-11-24T01:01:14.873Z,939.64
2022-11-24T01:01:24.877Z,939.65
2022-11-24T01:01:34.874Z,939.65
2022-11-24T01:01:44.936Z,939.65
2022-11-24T01:01:54.900Z,939.65
2022-11-24T01:02:04.884Z,939.66
2022-11-24T01:02:14.894Z,939.67
2022-11-24T01:02:24.891Z,939.67
2022-11-24T01:02:34.885Z,939.67
2022-11-24T01:02:44.886Z,939.67
2022-11-24T01:02:54.917Z,939.67
2022-11-24T01:03:04.926Z,939.66
2022-11-24T01:03:14.845Z,939.65
2022-11-24T01:03:24.843Z,939.65
2022-11-24T01:03:34.881Z,939.65
2022-11-24T01:03:44.855Z,939.65
2022-11-24T01:03:54.845Z,939.65
2022-11-24T01:04:04.832Z,939.65
2022-11-24T01:04:14.845Z,939.65
2022-11-24T01:04:24.830Z,939.65
2022-11-24T01:04:35.117Z,939.66
2022-11-24T01:04:44.848Z,939.66
2022-11-24T01:04:54.859Z,939.67
2022-11-24T01:05:04.851Z,939.67
2022-11-24T01:05:14.850Z,939.67
2022-11-24T01:05:24.850Z,939.67
2022-11-24T01:05:34.853Z,939.67
2022-11-24T01:05:44.854Z,939.66
2022-11-24T01:05:54.850Z,939.66
2022-11-24T01:06:04.856Z,939.66
2022-11-24T01:06:14.859Z,939.65
2022-11-24T01:06:24.854Z,939.65
2022-11-24T01:06:34.868Z,939.66
2022-11-24T01:06:44.855Z,939.66
2022-11-24T01:06:54.855Z,939.67
2022-11-24T01:07:04.860Z,939.66
2022-11-24T01:07:14.919Z,939.67
2022-11-24T01:07:24.886Z,939.66
2022-11-24T01:07:34.910Z,939.66
2022-11-24T01:07:44.905Z,939.67
2022-11-24T01:07:54.908Z,939.67
2022-11-24T01:08:04.865Z,939.68
2022-11-24T01:08:14.869Z,939.68
2022-11-24T01:08:24.862Z,939.68
2022-11-24T01:08:34.858Z,939.68
2022-11-24T01:08:44.848Z,939.68
2022-11-24T01:08:54.909Z,939.68
2022-11-24T01:09:04.875Z,939.68
2022-11-24T01:09:14.868Z,939.68
2022-11-24T01:09:24.870Z,939.67
2022-11-24T01:09:34.864Z,939.67
2022-11-24T01:09:44.870Z,939.67
2022-11-24T01:09:54.873Z,939.67
2022-11-24T01:10:04.881Z,939.67
2022-11-24T01:10:14.870Z,939.66
2022-11-24T01:10:24.870Z,939.67
2022-11-24T01:10:34.869Z,939.67
2022-11-24T01:10:44.869Z,939.67
2022-11-24T01:10:54.872Z,939.67
2022-11-24T01:11:04.874Z,939.68
2022-11-24T01:11:14.875Z,939.68
2022-11-24T01:11:24.878Z,939.68
2022-11-24T01:11:34.880Z,939.69
2022-11-24T01:11:44.883Z,939.69
2022-11-24T01:11:54.875Z,939.69
2022-11-24T01:12:04.882Z,939.70
2022-11-24T01:12:14.879Z,939.71
2022-11-24T01:12:24.878Z,939.71
2022-11-24T01:12:34.878Z,939.72
2022-11-24T01:12:44.879Z,939.73
2022-11-24T01:12:54.881Z,939.73
2022-11-24T01:13:04.882Z,939.73
2022-11-24T01:13:14.883Z,939.73
2022-11-24T01:13:24.884Z,939.72
2022-11-24T01:13:34.884Z,939.72
2022-11-24T01:13:44.882Z,939.72
2022-11-24T01:13:54.890Z,939.73
2022-11-24T01:14:04.897Z,939.72
2022-11-24T01:14:14.884Z,939.72
2022-11-24T01:14:24.893Z,939.71
2022-11-24T01:14:35.137Z,939.71
2022-11-24T01:14:44.886Z,939.71
2022-11-24T01:14:54.892Z,939.71
2022-11-24T01:15:04.891Z,939.71
2022-11-24T01:15:14.901Z,939.71
2022-11-24T01:15:24.888Z,939.72
2022-11-24T01:15:34.922Z,939.73
2022-11-24T01:15:44.914Z,939.74
2022-11-24T01:15:54.960Z,939.75
2022-11-24T01:16:05.002Z,939.76
2022-11-24T01:16:14.922Z,939.78
2022-11-24T01:16:25.007Z,939.79
2022-11-24T01:16:34.891Z,939.78
2022-11-24T01:16:44.892Z,939.79
2022-11-24T01:16:54.901Z,939.79
2022-11-24T01:17:04.894Z,939.79
2022-11-24T01:17:14.898Z,939.81
2022-11-24T01:17:24.895Z,939.80
2022-11-24T01:17:34.896Z,939.81
2022-11-24T01:17:44.903Z,939.81
2022-11-24T01:17:54.896Z,939.81
2022-11-24T01:18:04.896Z,939.81
2022-11-24T01:18:14.901Z,939.82
2022-11-24T01:18:24.905Z,939.82
2022-11-24T01:18:35.039Z,939.83
2022-11-24T01:18:44.897Z,939.83
2022-11-24T01:18:54.901Z,939.83
2022-11-24T01:19:04.911Z,939.83
2022-11-24T01:19:15.124Z,939.83
2022-11-24T01:19:24.910Z,939.84
2022-11-24T01:19:34.901Z,939.84
2022-11-24T01:19:44.905Z,939.85
2022-11-24T01:19:54.907Z,939.86
2022-11-24T01:20:04.908Z,939.87
2022-11-24T01:20:14.904Z,939.87
2022-11-24T01:20:24.911Z,939.87
2022-11-24T01:20:34.907Z,939.88
2022-11-24T01:20:44.908Z,939.88
2022-11-24T01:20:54.941Z,939.88
2022-11-24T01:21:09.797Z,939.88
2022-11-24T01:21:15.908Z,939.88
2022-11-24T01:21:24.911Z,939.88
2022-11-24T01:21:34.911Z,939.87
2022-11-24T01:21:44.916Z,939.86
2022-11-24T01:21:54.919Z,939.86
2022-11-24T01:22:04.916Z,939.87
2022-11-24T01:22:14.914Z,939.86
2022-11-24T01:22:24.920Z,939.86
2022-11-24T01:22:34.921Z,939.86
2022-11-24T01:22:44.918Z,939.86
2022-11-24T01:22:54.917Z,939.86
2022-11-24T01:23:04.937Z,939.86
2022-11-24T01:23:14.918Z,939.87
2022-11-24T01:23:24.927Z,939.87
2022-11-24T01:23:35.044Z,939.87
2022-11-24T01:23:44.921Z,939.87
2022-11-24T01:23:54.929Z,939.87
2022-11-24T01:24:04.924Z,939.87
2022-11-24T01:24:14.922Z,939.87
2022-11-24T01:24:24.928Z,939.88
2022-11-24T01:24:35.251Z,939.89
2022-11-24T01:24:44.925Z,939.88
2022-11-24T01:24:54.934Z,939.88
2022-11-24T01:25:04.922Z,939.88
2022-11-24T01:25:14.930Z,939.88
2022-11-24T01:25:24.923Z,939.87
2022-11-24T01:25:34.923Z,939.87
2022-11-24T01:25:44.944Z,939.88
2022-11-24T01:25:54.926Z,939.88
2022-11-24T01:26:04.933Z,939.87
2022-11-24T01:26:14.934Z,939.87
2022-11-24T01:26:24.926Z,939.88
2022-11-24T01:26:34.927Z,939.88
2022-11-24T01:26:44.932Z,939.87
2022-11-24T01:26:54.931Z,939.87
2022-11-24T01:27:04.935Z,939.88
2022-11-24T01:27:14.931Z,939.89
2022-11-24T01:27:24.936Z,939.89
2022-11-24T01:27:34.936Z,939.90
2022-11-24T01:27:44.940Z,939.90
2022-11-24T01:27:54.938Z,939.91
2022-11-24T01:28:04.963Z,939.92
2022-11-24T01:28:14.936Z,939.92
2022-11-24T01:28:24.943Z,939.93
2022-11-24T01:28:35.792Z,939.93
2022-11-24T01:28:47.475Z,939.93
2022-11-24T01:28:54.943Z,939.92
2022-11-24T01:29:04.952Z,939.92
2022-11-24T01:29:14.948Z,939.92
2022-11-24T01:29:24.940Z,939.92
2022-11-24T01:29:34.950Z,939.92
2022-11-24T01:29:44.941Z,939.93
2022-11-24T01:29:54.942Z,939.93
2022-11-24T01:30:04.960Z,939.94
2022-11-24T01:30:14.976Z,939.94
2022-11-24T01:30:24.949Z,939.94
2022-11-24T01:30:34.959Z,939.92
2022-11-24T01:30:44.970Z,939.92
2022-11-24T01:30:54.963Z,939.92
2022-11-24T01:31:04.985Z,939.91
2022-11-24T01:31:14.994Z,939.91
2022-11-24T01:31:25.000Z,939.90
2022-11-24T01:31:34.947Z,939.90
2022-11-24T01:31:44.951Z,939.90
2022-11-24T01:31:54.950Z,939.89
2022-11-24T01:32:04.952Z,939.88
2022-11-24T01:32:14.951Z,939.89
2022-11-24T01:32:24.951Z,939.90
2022-11-24T01:32:34.942Z,939.89
2022-11-24T01:32:45.006Z,939.90
2022-11-24T01:32:54.953Z,939.91
2022-11-24T01:33:04.954Z,939.92
2022-11-24T01:33:14.962Z,939.92
2022-11-24T01:33:24.957Z,939.93
2022-11-24T01:33:35.794Z,939.94
2022-11-24T01:33:44.960Z,939.94
2022-11-24T01:33:54.958Z,939.95
2022-11-24T01:34:04.978Z,939.96
2022-11-24T01:34:14.958Z,939.96
2022-11-24T01:34:24.959Z,939.96
2022-11-24T01:34:35.202Z,939.94
2022-11-24T01:34:44.967Z,939.94
2022-11-24T01:34:54.959Z,939.93
2022-11-24T01:35:04.962Z,939.92
2022-11-24T01:35:14.966Z,939.91
2022-11-24T01:35:24.965Z,939.92
2022-11-24T01:35:34.963Z,939.92
2022-11-24T01:35:44.968Z,939.92
2022-11-24T01:35:54.966Z,939.93
2022-11-24T01:36:04.966Z,939.93
2022-11-24T01:36:14.958Z,939.92
2022-11-24T01:36:24.975Z,939.92
2022-11-24T01:36:34.972Z,939.91
2022-11-24T01:36:45.006Z,939.91
2022-11-24T01:36:54.981Z,939.91
2022-11-24T01:37:04.970Z,939.91
2022-11-24T01:37:14.984Z,939.91
2022-11-24T01:37:24.972Z,939.90
2022-11-24T01:37:34.974Z,939.90
2022-11-24T01:37:44.982Z,939.91
2022-11-24T01:37:54.977Z,939.91
2022-11-24T01:38:04.962Z,939.91
2022-11-24T01:38:14.985Z,939.90
2022-11-24T01:38:24.977Z,939.90
2022-11-24T01:38:35.801Z,939.91
2022-11-24T01:38:44.973Z,939.91
2022-11-24T01:38:54.978Z,939.92
2022-11-24T01:39:04.985Z,939.92
2022-11-24T01:39:14.982Z,939.91
2022-11-24T01:39:24.980Z,939.91
2022-11-24T01:39:34.982Z,939.92
2022-11-24T01:39:44.977Z,939.92
2022-11-24T01:39:54.980Z,939.92
2022-11-24T01:40:05.017Z,939.92
2022-11-24T01:40:14.980Z,939.92
2022-11-24T01:40:24.985Z,939.92
2022-11-24T01:40:35.000Z,939.92
2022-11-24T01:40:45.001Z,939.92
2022-11-24T01:40:54.986Z,939.92
2022-11-24T01:41:04.992Z,939.92
2022-11-24T01:41:14.984Z,939.91
2022-11-24T01:41:24.986Z,939.92
2022-11-24T01:41:34.992Z,939.91
2022-11-24T01:41:44.987Z,939.92
2022-11-24T01:41:54.990Z,939.93
2022-11-24T01:42:04.986Z,939.93
2022-11-24T01:42:14.988Z,939.94
2022-11-24T01:42:24.988Z,939.93
2022-11-24T01:42:34.989Z,939.92
2022-11-24T01:42:44.977Z,939.92
2022-11-24T01:42:54.991Z,939.92
2022-11-24T01:43:04.991Z,939.91
2022-11-24T01:43:14.994Z,939.92
2022-11-24T01:43:24.999Z,939.91
2022-11-24T01:43:35.800Z,939.91
2022-11-24T01:43:45.000Z,939.90
2022-11-24T01:43:55.001Z,939.90
2022-11-24T01:44:05.008Z,939.90
2022-11-24T01:44:15.000Z,939.91
2022-11-24T01:44:25.007Z,939.92
2022-11-24T01:44:35.251Z,939.92
2022-11-24T01:44:45.030Z,939.92
2022-11-24T01:44:55.006Z,939.91
2022-11-24T01:45:05.005Z,939.92
2022-11-24T01:45:15.003Z,939.93
2022-11-24T01:45:25.008Z,939.93
2022-11-24T01:45:35.007Z,939.93
2022-11-24T01:45:45.068Z,939.93
2022-11-24T01:45:55.044Z,939.94
2022-11-24T01:46:05.058Z,939.93
2022-11-24T01:46:15.053Z,939.94
2022-11-24T01:46:25.071Z,939.94
2022-11-24T01:46:35.112Z,939.95
2022-11-24T01:46:45.014Z,939.94
2022-11-24T01:46:55.009Z,939.95
2022-11-24T01:47:05.014Z,939.95
2022-11-24T01:47:15.009Z,939.95
2022-11-24T01:47:25.008Z,939.96
2022-11-24T01:47:35.024Z,939.95
2022-11-24T01:47:45.007Z,939.95
2022-11-24T01:47:55.015Z,939.95
2022-11-24T01:48:05.018Z,939.94
2022-11-24T01:48:15.012Z,939.94
2022-11-24T01:48:27.811Z,939.94
2022-11-24T01:48:35.799Z,939.94
2022-11-24T01:48:45.016Z,939.95
2022-11-24T01:48:55.015Z,939.96
2022-11-24T01:49:05.022Z,939.96
2022-11-24T01:49:15.018Z,939.96
2022-11-24T01:49:25.021Z,939.95
2022-11-24T01:49:35.020Z,939.95
2022-11-24T01:49:45.019Z,939.95
2022-11-24T01:49:55.020Z,939.96
2022-11-24T01:50:05.029Z,939.97
2022-11-24T01:50:15.020Z,939.98
2022-11-24T01:50:25.018Z,939.98
2022-11-24T01:50:35.037Z,939.98
2022-11-24T01:50:45.023Z,939.99
2022-11-24T01:50:55.031Z,939.99
2022-11-24T01:51:05.028Z,939.99
2022-11-24T01:51:15.025Z,939.99
2022-11-24T01:51:25.029Z,939.99
2022-11-24T01:51:35.026Z,940.00
2022-11-24T01:51:45.025Z,939.99
2022-11-24T01:51:55.037Z,939.99
2022-11-24T01:52:05.031Z,939.99
2022-11-24T01:52:15.030Z,939.99
2022-11-24T01:52:25.039Z,939.99
2022-11-24T01:52:35.030Z,939.99
2022-11-24T01:52:45.030Z,939.99
2022-11-24T01:52:55.036Z,939.99
2022-11-24T01:53:05.033Z,939.99
2022-11-24T01:53:15.034Z,939.99
2022-11-24T01:53:25.034Z,939.99
2022-11-24T01:53:35.058Z,940.00
2022-11-24T01:53:45.035Z,940.00
2022-11-24T01:53:55.036Z,940.00
2022-11-24T01:54:05.036Z,940.00
2022-11-24T01:54:15.032Z,940.01
2022-11-24T01:54:25.037Z,940.01
2022-11-24T01:54:35.220Z,940.02
2022-11-24T01:54:45.039Z,940.02
2022-11-24T01:54:55.024Z,940.02
2022-11-24T01:55:05.036Z,940.02
2022-11-24T01:55:15.041Z,940.02
2022-11-24T01:55:25.040Z,940.02
2022-11-24T01:55:35.040Z,940.03
2022-11-24T01:55:45.042Z,940.04
2022-11-24T01:55:55.044Z,940.05
2022-11-24T01:56:05.039Z,940.05
2022-11-24T01:56:15.049Z,940.06
2022-11-24T01:56:25.047Z,940.06
2022-11-24T01:56:35.045Z,940.06
2022-11-24T01:56:45.048Z,940.07
2022-11-24T01:56:55.050Z,940.07
2022-11-24T01:57:05.045Z,940.06
2022-11-24T01:57:15.048Z,940.06
2022-11-24T01:57:25.052Z,940.06
2022-11-24T01:57:35.038Z,940.06
2022-11-24T01:57:45.057Z,940.06
2022-11-24T01:57:55.052Z,940.06
2022-11-24T01:58:05.057Z,940.06
2022-11-24T01:58:15.044Z,940.06
2022-11-24T01:58:25.060Z,940.05
2022-11-24T01:58:35.053Z,940.05
2022-11-24T01:58:45.066Z,940.04
2022-11-24T01:58:55.059Z,940.04
2022-11-24T01:59:05.058Z,940.04
2022-11-24T01:59:15.064Z,940.04
2022-11-24T01:59:25.061Z,940.04
2022-11-24T01:59:35.056Z,940.05
2022-11-24T01:59:45.059Z,940.06
2022-11-24T01:59:55.061Z,940.06
2022-11-24T02:00:05.059Z,940.06
2022-11-24T02:00:15.064Z,940.06
2022-11-24T02:00:25.062Z,940.05
2022-11-24T02:00:35.061Z,940.05
2022-11-24T02:00:45.068Z,940.05
2022-11-24T02:00:55.064Z,940.06
2022-11-24T02:01:05.126Z,940.06
2022-11-24T02:01:15.139Z,940.07
2022-11-24T02:01:25.117Z,940.07
2022-11-24T02:01:35.160Z,940.07
2022-11-24T02:01:45.137Z,940.06
2022-11-24T02:01:55.141Z,940.06
2022-11-24T02:02:05.136Z,940.06
2022-11-24T02:02:15.094Z,940.05
2022-11-24T02:02:25.134Z,940.07
2022-11-24T02:02:35.137Z,940.07
2022-11-24T02:02:45.181Z,940.08
2022-11-24T02:02:55.120Z,940.07
2022-11-24T02:03:05.115Z,940.07
2022-11-24T02:03:15.069Z,940.08
2022-11-24T02:03:25.070Z,940.08
2022-11-24T02:03:35.069Z,940.08
2022-11-24T02:03:45.072Z,940.10
2022-11-24T02:03:55.073Z,940.10
2022-11-24T02:04:05.078Z,940.10
2022-11-24T02:04:15.075Z,940.11
2022-11-24T02:04:25.083Z,940.11
2022-11-24T02:04:35.307Z,940.12
2022-11-24T02:04:45.079Z,940.12